Time;durP1;ratioP1;P1;durP2;ratioP2;P2;SDS_P1;SDS_P2;PMS_P1;PMS_P2;Temp;Humidity;BMP_temperature;BMP_pressure;BME280_temperature;BME280_humidity;BME280_pressure;Samples;Min_cycle;Max_cycle;Signal;HPM_P1;HPM_P2
2023/03/24 00:01:58;;;;;;;3.83;1.93;;;12.30;99.90;;;;;;5045499;28;20232;-81
2023/03/24 00:04:28;;;;;;;3.20;2.03;;;12.40;99.90;;;;;;5045550;28;20200;-80
2023/03/24 00:06:55;;;;;;;1.97;1.77;;;12.50;99.90;;;;;;5044611;28;20207;-80
2023/03/24 00:09:22;;;;;;;3.67;1.87;;;12.40;99.90;;;;;;5044428;28;20223;-81
2023/03/24 00:11:49;;;;;;;4.40;1.97;;;12.40;99.90;;;;;;5026341;28;20228;-81
2023/03/24 00:14:17;;;;;;;1.90;1.70;;;12.30;99.90;;;;;;5032078;28;20203;-80
2023/03/24 00:16:44;;;;;;;2.53;1.70;;;12.40;99.90;;;;;;5044220;28;20207;-81
2023/03/24 00:19:13;;;;;;;3.13;2.20;;;12.30;99.90;;;;;;5044675;28;20204;-81
2023/03/24 00:21:42;;;;;;;5.17;2.10;;;12.40;99.90;;;;;;5044478;28;20307;-80
2023/03/24 00:24:10;;;;;;;5.03;2.27;;;12.30;99.90;;;;;;5043866;28;20200;-81
2023/03/24 00:26:38;;;;;;;5.07;2.10;;;12.40;99.90;;;;;;5044381;28;20215;-80
2023/03/24 00:29:06;;;;;;;7.57;1.93;;;12.40;99.90;;;;;;5044615;28;20215;-81
2023/03/24 00:31:38;;;;;;;3.57;2.20;;;12.30;99.90;;;;;;5044980;28;20226;-81
2023/03/24 00:34:07;;;;;;;2.50;1.90;;;12.40;99.90;;;;;;5045759;28;20210;-81
2023/03/24 00:36:34;;;;;;;4.30;2.30;;;12.40;99.90;;;;;;5045861;28;20211;-81
2023/03/24 00:39:05;;;;;;;4.10;2.13;;;12.30;99.90;;;;;;5044974;28;20231;-80
2023/03/24 00:41:32;;;;;;;4.27;2.20;;;12.20;99.90;;;;;;5044853;28;20207;-82
2023/03/24 00:44:02;;;;;;;5.37;2.17;;;12.30;99.90;;;;;;5044565;28;20257;-81
2023/03/24 00:46:29;;;;;;;3.63;2.40;;;12.20;99.90;;;;;;5044006;28;20207;-80
2023/03/24 00:49:00;;;;;;;5.73;2.30;;;12.20;99.90;;;;;;5044879;28;20196;-81
2023/03/24 00:51:28;;;;;;;2.73;2.10;;;12.10;99.90;;;;;;5044785;28;20212;-81
2023/03/24 00:53:56;;;;;;;5.87;2.40;;;12.10;99.90;;;;;;5043901;28;20658;-80
2023/03/24 00:56:26;;;;;;;5.70;2.20;;;12.00;99.90;;;;;;5044649;28;20228;-81
2023/03/24 00:58:56;;;;;;;7.40;2.87;;;12.00;99.90;;;;;;5044746;28;20218;-81
2023/03/24 01:01:24;;;;;;;3.43;2.37;;;11.90;99.90;;;;;;5044130;28;20267;-81
2023/03/24 01:03:51;;;;;;;3.27;2.60;;;11.90;99.90;;;;;;5043735;28;20211;-81
2023/03/24 01:06:21;;;;;;;5.33;2.40;;;11.90;99.90;;;;;;5043803;28;20231;-81
2023/03/24 01:08:49;;;;;;;2.90;2.40;;;12.00;99.90;;;;;;5043316;28;20208;-81
2023/03/24 01:11:16;;;;;;;3.17;2.37;;;11.90;99.90;;;;;;5044365;28;20242;-81
2023/03/24 01:13:45;;;;;;;4.97;2.50;;;11.90;99.90;;;;;;5044085;28;20243;-80
2023/03/24 01:16:12;;;;;;;4.87;2.57;;;12.00;99.90;;;;;;5044555;28;20244;-81
2023/03/24 01:18:39;;;;;;;3.47;2.40;;;12.00;99.90;;;;;;5043937;28;20217;-80
2023/03/24 01:21:08;;;;;;;2.80;2.40;;;12.00;99.90;;;;;;5044213;28;20215;-80
2023/03/24 01:23:35;;;;;;;3.23;2.60;;;11.90;99.90;;;;;;5044721;28;20231;-81
2023/03/24 01:26:05;;;;;;;3.27;2.30;;;12.00;99.90;;;;;;5043780;28;20223;-80
2023/03/24 01:28:32;;;;;;;2.40;2.20;;;12.00;99.90;;;;;;5043270;28;20235;-81
2023/03/24 01:31:00;;;;;;;2.90;2.30;;;12.00;99.90;;;;;;5042599;28;20230;-81
2023/03/24 01:33:27;;;;;;;5.20;2.67;;;12.00;99.90;;;;;;5040543;28;20318;-80
2023/03/24 01:35:54;;;;;;;4.30;2.60;;;12.00;99.90;;;;;;5057695;28;20214;-81
2023/03/24 01:38:21;;;;;;;4.10;1.97;;;12.00;99.90;;;;;;5040659;28;20203;-80
2023/03/24 01:40:48;;;;;;;4.60;2.40;;;12.10;99.90;;;;;;5051890;28;20231;-81
2023/03/24 01:43:19;;;;;;;3.40;2.40;;;12.10;99.90;;;;;;5057858;28;20318;-81
2023/03/24 01:46:01;;;;;;;2.97;2.23;;;12.10;99.90;;;;;;5058710;28;20198;-80
2023/03/24 01:48:31;;;;;;;4.60;2.60;;;12.10;99.90;;;;;;5057258;28;20207;-81
2023/03/24 01:51:01;;;;;;;4.13;2.20;;;12.10;99.90;;;;;;5041804;28;20199;-80
2023/03/24 01:53:30;;;;;;;2.97;2.43;;;12.10;99.90;;;;;;5042517;28;20226;-81
2023/03/24 01:55:57;;;;;;;3.70;2.17;;;12.10;99.90;;;;;;5042851;28;20219;-80
2023/03/24 01:58:28;;;;;;;2.63;2.27;;;12.20;99.90;;;;;;5040602;28;20242;-81
2023/03/24 02:00:56;;;;;;;4.57;2.50;;;12.20;99.90;;;;;;5041153;28;20230;-80
2023/03/24 02:03:28;;;;;;;3.90;2.30;;;12.20;99.90;;;;;;5041417;28;20254;-81
2023/03/24 02:05:57;;;;;;;3.30;2.40;;;12.20;99.90;;;;;;5042358;28;20195;-81
2023/03/24 02:08:30;;;;;;;4.57;2.50;;;12.10;99.90;;;;;;5041354;28;20200;-81
2023/03/24 02:10:58;;;;;;;3.50;2.37;;;12.10;99.90;;;;;;5041958;28;20235;-80
2023/03/24 02:13:25;;;;;;;4.53;2.37;;;12.00;99.90;;;;;;5042881;28;20262;-81
2023/03/24 02:16:04;;;;;;;4.23;2.33;;;11.90;99.90;;;;;;5041511;28;20223;-80
2023/03/24 02:18:43;;;;;;;2.40;2.20;;;12.00;99.90;;;;;;5041101;28;20208;-80
2023/03/24 02:21:49;;;;;;;2.93;2.27;;;12.00;99.90;;;;;;5035140;28;20194;-80
2023/03/24 02:24:50;;;;;;;2.53;1.97;;;12.00;99.90;;;;;;5041081;28;20275;-80
2023/03/24 02:27:41;;;;;;;3.07;2.77;;;12.00;99.90;;;;;;5041269;28;20234;-80
2023/03/24 02:30:46;;;;;;;2.90;2.10;;;12.00;99.90;;;;;;5040866;28;20269;-80
2023/03/24 02:33:42;;;;;;;2.20;2.00;;;12.10;99.90;;;;;;4966291;28;20233;-81
2023/03/24 02:37:08;;;;;;;3.10;2.10;;;12.00;99.90;;;;;;5040966;28;20243;-81
2023/03/24 02:39:54;;;;;;;2.73;2.37;;;12.10;99.90;;;;;;5040844;28;20225;-80
2023/03/24 02:42:33;;;;;;;2.27;2.00;;;12.10;99.90;;;;;;5039208;28;20247;-81
2023/03/24 02:45:08;;;;;;;2.47;2.10;;;12.10;99.90;;;;;;5042325;28;20207;-81
2023/03/24 02:47:43;;;;;;;2.50;2.27;;;12.00;99.90;;;;;;5045316;28;20239;-80
2023/03/24 02:50:18;;;;;;;2.83;2.10;;;12.20;99.90;;;;;;5044601;28;20229;-81
2023/03/24 02:52:50;;;;;;;3.30;2.20;;;12.10;99.90;;;;;;5044576;28;20227;-81
2023/03/24 02:55:24;;;;;;;2.93;2.53;;;12.20;99.90;;;;;;5044393;28;20250;-81
2023/03/24 02:57:54;;;;;;;5.47;2.37;;;12.30;99.90;;;;;;5044307;28;20215;-80
2023/03/24 03:00:29;;;;;;;2.30;2.10;;;12.50;99.90;;;;;;5045357;28;20273;-80
2023/03/24 03:03:01;;;;;;;3.43;2.37;;;12.40;99.90;;;;;;5043430;28;20287;-81
2023/03/24 03:05:33;;;;;;;3.00;2.50;;;12.50;99.90;;;;;;5045242;28;20180;-81
2023/03/24 03:08:02;;;;;;;5.40;2.33;;;12.40;99.90;;;;;;5043799;28;20207;-81
2023/03/24 03:10:34;;;;;;;2.20;2.00;;;12.40;99.90;;;;;;5044964;28;20825;-80
2023/03/24 03:13:07;;;;;;;4.03;2.70;;;12.40;99.90;;;;;;5044707;28;20227;-80
2023/03/24 03:15:37;;;;;;;2.80;2.50;;;12.30;99.90;;;;;;5044146;28;20219;-80
2023/03/24 03:18:09;;;;;;;3.13;2.60;;;12.40;99.90;;;;;;5044095;28;20210;-81
2023/03/24 03:20:49;;;;;;;5.13;2.50;;;12.30;99.90;;;;;;5044801;28;20207;-80
2023/03/24 03:23:22;;;;;;;3.23;2.80;;;12.40;99.90;;;;;;5044467;28;20242;-81
2023/03/24 03:26:04;;;;;;;5.30;2.37;;;12.40;99.90;;;;;;5045090;28;20302;-80
2023/03/24 03:28:32;;;;;;;3.07;2.60;;;12.30;99.90;;;;;;5043998;28;20239;-80
2023/03/24 03:31:05;;;;;;;2.67;2.43;;;12.30;99.90;;;;;;5042582;28;20196;-80
2023/03/24 03:33:38;;;;;;;3.07;2.47;;;12.40;99.90;;;;;;5045127;28;20224;-81
2023/03/24 03:36:09;;;;;;;2.63;2.40;;;12.40;99.90;;;;;;5020426;28;20250;-81
2023/03/24 03:38:45;;;;;;;3.10;2.60;;;12.30;99.90;;;;;;5043356;28;20243;-81
2023/03/24 03:41:17;;;;;;;4.03;2.70;;;12.30;99.90;;;;;;5044413;28;20203;-80
2023/03/24 03:43:45;;;;;;;3.27;2.57;;;12.30;99.90;;;;;;5043798;28;20290;-81
2023/03/24 03:46:12;;;;;;;4.27;3.00;;;12.30;99.90;;;;;;5045395;28;20207;-80
2023/03/24 03:48:40;;;;;;;3.00;2.60;;;12.20;99.90;;;;;;5043948;28;20261;-81
2023/03/24 03:51:08;;;;;;;4.67;2.80;;;12.10;99.90;;;;;;5044737;28;20259;-81
2023/03/24 03:53:43;;;;;;;4.10;3.10;;;12.00;99.90;;;;;;5041811;28;20251;-81
2023/03/24 03:56:11;;;;;;;4.27;3.00;;;12.00;99.90;;;;;;5043615;28;20222;-81
2023/03/24 03:58:41;;;;;;;3.23;2.90;;;12.00;99.90;;;;;;5043050;28;20231;-81
2023/03/24 04:01:12;;;;;;;4.13;3.23;;;12.00;99.90;;;;;;5042535;28;20204;-81
2023/03/24 04:03:56;;;;;;;5.67;3.57;;;11.90;99.90;;;;;;5043173;28;20366;-81
2023/03/24 04:06:34;;;;;;;4.17;2.97;;;11.90;99.90;;;;;;5044013;28;20212;-81
2023/03/24 04:09:10;;;;;;;4.03;3.00;;;11.90;99.90;;;;;;5042569;28;20204;-81
2023/03/24 04:12:22;;;;;;;4.70;3.00;;;11.90;99.90;;;;;;5043248;28;20246;-81
2023/03/24 04:15:16;;;;;;;5.40;3.67;;;11.80;99.90;;;;;;5033427;28;20302;-81
2023/03/24 04:18:01;;;;;;;4.33;3.53;;;11.70;99.90;;;;;;5026153;28;20684;-81
2023/03/24 04:20:37;;;;;;;4.53;3.20;;;11.70;99.90;;;;;;5030192;28;20184;-81
2023/03/24 04:23:13;;;;;;;5.67;3.80;;;11.80;99.90;;;;;;5044263;28;20277;-81
2023/03/24 04:25:49;;;;;;;4.60;3.83;;;11.80;99.90;;;;;;5042336;28;20207;-81
2023/03/24 04:28:25;;;;;;;5.07;3.70;;;11.80;99.90;;;;;;5037903;28;20221;-81
2023/03/24 04:30:56;;;;;;;5.97;4.33;;;11.80;99.90;;;;;;5042971;28;20257;-82
2023/03/24 04:33:29;;;;;;;4.20;3.77;;;11.80;99.90;;;;;;5043195;28;20255;-80
2023/03/24 04:36:05;;;;;;;6.80;4.07;;;11.80;99.90;;;;;;5044073;28;20234;-80
2023/03/24 04:38:35;;;;;;;4.27;3.47;;;11.80;99.90;;;;;;5043055;28;20215;-80
2023/03/24 04:41:04;;;;;;;5.27;4.00;;;11.80;99.90;;;;;;5043086;28;20203;-80
2023/03/24 04:43:35;;;;;;;4.90;3.60;;;11.90;99.90;;;;;;5043217;28;20351;-80
2023/03/24 04:46:07;;;;;;;4.97;3.93;;;12.00;99.90;;;;;;5042520;28;20203;-80
2023/03/24 04:48:34;;;;;;;6.17;4.10;;;12.00;99.90;;;;;;5042558;28;20215;-80
2023/03/24 04:51:04;;;;;;;4.47;4.00;;;12.10;99.90;;;;;;5043626;28;20212;-80
2023/03/24 04:53:31;;;;;;;4.60;3.80;;;12.00;99.90;;;;;;5042534;28;20224;-82
2023/03/24 04:56:13;;;;;;;5.33;3.93;;;12.10;99.90;;;;;;5043256;28;20208;-80
2023/03/24 04:58:40;;;;;;;4.77;4.00;;;12.00;99.90;;;;;;5042832;28;20188;-80
2023/03/24 05:01:08;;;;;;;5.60;3.67;;;12.00;99.90;;;;;;5043789;28;20213;-80
2023/03/24 05:03:36;;;;;;;5.13;4.37;;;12.10;99.90;;;;;;5042759;28;20255;-80
2023/03/24 05:06:05;;;;;;;5.93;4.03;;;12.10;99.90;;;;;;5043168;28;20227;-80
2023/03/24 05:08:32;;;;;;;6.43;3.83;;;12.10;99.90;;;;;;5042362;28;20207;-83
2023/03/24 05:10:59;;;;;;;5.17;4.10;;;12.20;99.90;;;;;;5058263;28;20195;-80
2023/03/24 05:13:26;;;;;;;5.33;3.77;;;12.30;99.90;;;;;;5066519;28;20219;-81
2023/03/24 05:15:53;;;;;;;4.63;3.60;;;12.20;99.90;;;;;;5064393;28;20238;-80
2023/03/24 05:18:21;;;;;;;5.37;4.27;;;12.30;99.90;;;;;;5062859;28;20203;-81
2023/03/24 05:20:48;;;;;;;7.10;3.83;;;12.40;99.90;;;;;;5055936;28;20222;-81
2023/03/24 05:23:15;;;;;;;6.80;4.60;;;12.50;99.90;;;;;;5060297;28;20235;-81
2023/03/24 05:25:42;;;;;;;5.27;4.20;;;12.50;99.90;;;;;;5046256;28;20671;-80
2023/03/24 05:28:09;;;;;;;5.50;4.10;;;12.60;99.90;;;;;;5054819;28;20230;-80
2023/03/24 05:30:35;;;;;;;5.70;4.10;;;12.70;99.90;;;;;;5045967;28;20624;-80
2023/03/24 05:33:02;;;;;;;6.27;4.33;;;12.80;99.90;;;;;;5043304;28;20232;-81
2023/03/24 05:35:30;;;;;;;7.93;4.03;;;12.70;99.90;;;;;;5042358;28;20200;-81
2023/03/24 05:37:57;;;;;;;4.80;4.00;;;12.70;99.90;;;;;;5052834;28;20230;-80
2023/03/24 05:40:25;;;;;;;5.80;4.10;;;12.70;99.90;;;;;;5034947;28;20573;-81
2023/03/24 05:42:52;;;;;;;4.77;3.70;;;12.80;99.90;;;;;;5050369;28;20254;-80
2023/03/24 05:45:19;;;;;;;6.07;4.00;;;12.80;99.90;;;;;;5047970;28;20618;-80
2023/03/24 05:47:46;;;;;;;6.30;4.27;;;12.80;99.90;;;;;;5053775;28;20218;-80
2023/03/24 05:50:13;;;;;;;5.00;4.20;;;12.80;99.90;;;;;;5044127;28;20222;-81
2023/03/24 05:52:41;;;;;;;5.00;3.83;;;12.80;99.90;;;;;;5045384;28;20741;-80
2023/03/24 05:55:09;;;;;;;4.20;3.80;;;12.60;99.90;;;;;;5045425;28;20203;-80
2023/03/24 05:57:37;;;;;;;4.73;3.80;;;12.80;99.90;;;;;;5041944;28;20745;-82
2023/03/24 06:00:09;;;;;;;4.83;3.90;;;12.80;99.90;;;;;;5043631;28;20202;-82
2023/03/24 06:02:36;;;;;;;4.87;3.80;;;12.80;99.90;;;;;;5051832;28;20235;-81
2023/03/24 06:05:03;;;;;;;5.73;3.80;;;12.80;99.90;;;;;;5046643;28;20198;-82
2023/03/24 06:07:31;;;;;;;5.27;3.70;;;12.80;99.90;;;;;;5048857;28;20199;-82
2023/03/24 06:10:01;;;;;;;4.67;3.93;;;12.80;99.90;;;;;;5053198;28;20231;-82
2023/03/24 06:12:29;;;;;;;4.33;3.80;;;12.90;99.90;;;;;;5039990;28;20215;-81
2023/03/24 06:14:55;;;;;;;6.00;4.00;;;12.90;99.90;;;;;;5044618;28;20207;-82
2023/03/24 06:17:23;;;;;;;6.73;3.90;;;12.90;99.90;;;;;;5048637;28;20219;-81
2023/03/24 06:19:50;;;;;;;4.93;4.43;;;12.90;99.90;;;;;;5048944;28;20205;-82
2023/03/24 06:22:17;;;;;;;8.90;4.13;;;12.90;99.90;;;;;;5056140;28;20738;-82
2023/03/24 06:24:45;;;;;;;4.87;3.97;;;12.90;99.90;;;;;;5041122;28;20203;-82
2023/03/24 06:27:14;;;;;;;5.47;4.13;;;12.90;99.90;;;;;;5054487;28;20226;-81
2023/03/24 06:29:42;;;;;;;4.40;3.67;;;13.00;99.90;;;;;;5035783;28;20207;-81
2023/03/24 06:32:09;;;;;;;7.00;3.87;;;12.70;99.90;;;;;;5050223;28;20234;-81
2023/03/24 06:34:37;;;;;;;5.07;4.13;;;12.70;99.90;;;;;;5046849;28;20207;-80
2023/03/24 06:37:04;;;;;;;4.83;4.10;;;12.60;99.90;;;;;;5046493;28;20215;-82
2023/03/24 06:39:31;;;;;;;6.77;4.30;;;12.50;99.90;;;;;;5047698;28;20199;-82
2023/03/24 06:41:58;;;;;;;6.57;4.63;;;12.40;99.90;;;;;;5051681;28;20223;-82
2023/03/24 06:44:27;;;;;;;5.80;4.60;;;12.40;99.90;;;;;;5035800;28;20217;-83
2023/03/24 06:46:54;;;;;;;7.37;4.93;;;12.30;99.90;;;;;;5050865;28;20203;-81
2023/03/24 06:49:20;;;;;;;5.93;4.50;;;12.30;99.90;;;;;;5052895;28;20657;-82
2023/03/24 06:51:47;;;;;;;5.93;4.57;;;12.30;99.90;;;;;;5036894;28;20220;-83
2023/03/24 06:54:15;;;;;;;5.80;4.60;;;12.30;99.90;;;;;;5050951;28;20200;-82
2023/03/24 06:56:42;;;;;;;4.77;3.60;;;12.40;99.90;;;;;;5046510;28;20221;-81
2023/03/24 06:59:09;;;;;;;5.20;3.93;;;12.50;99.90;;;;;;5052176;28;20258;-83
2023/03/24 07:01:37;;;;;;;3.97;3.47;;;12.50;99.90;;;;;;5036607;28;20200;-83
2023/03/24 07:04:04;;;;;;;6.57;3.63;;;12.60;99.90;;;;;;5044262;28;20858;-81
2023/03/24 07:06:32;;;;;;;4.63;2.87;;;12.60;99.90;;;;;;5046831;28;20203;-82
2023/03/24 07:08:59;;;;;;;2.87;2.47;;;12.60;99.90;;;;;;5047750;28;20594;-82
2023/03/24 07:11:26;;;;;;;3.07;2.50;;;12.60;99.90;;;;;;5045303;28;20210;-83
2023/03/24 07:13:53;;;;;;;3.57;2.10;;;12.60;99.90;;;;;;5055456;28;20207;-82
2023/03/24 07:16:20;;;;;;;2.30;2.10;;;12.60;99.90;;;;;;5039604;28;20203;-82
2023/03/24 07:18:48;;;;;;;3.20;2.63;;;12.60;99.90;;;;;;5050273;28;20211;-82
2023/03/24 07:21:17;;;;;;;2.87;2.27;;;12.70;99.90;;;;;;5051073;28;20201;-82
2023/03/24 07:23:44;;;;;;;1.90;1.80;;;12.70;99.90;;;;;;5048497;28;20229;-81
2023/03/24 07:26:10;;;;;;;2.20;2.00;;;12.80;99.90;;;;;;5041155;28;20203;-82
2023/03/24 07:28:37;;;;;;;3.17;2.30;;;12.90;99.90;;;;;;5050355;28;20213;-82
2023/03/24 07:31:05;;;;;;;3.47;2.70;;;13.00;99.90;;;;;;5042193;28;20205;-82
2023/03/24 07:33:32;;;;;;;2.60;2.40;;;13.00;99.90;;;;;;5038084;28;20314;-81
2023/03/24 07:36:01;;;;;;;2.60;2.23;;;13.00;99.90;;;;;;5043277;28;20222;-82
2023/03/24 07:38:27;;;;;;;3.17;2.17;;;13.20;99.90;;;;;;5042299;28;20226;-82
2023/03/24 07:40:54;;;;;;;2.40;2.27;;;13.10;99.90;;;;;;5042507;28;20271;-82
2023/03/24 07:43:21;;;;;;;2.73;2.53;;;13.00;99.90;;;;;;5034334;28;20220;-82
2023/03/24 07:45:48;;;;;;;2.70;2.50;;;13.20;99.90;;;;;;5045749;28;20627;-81
2023/03/24 07:48:15;;;;;;;3.00;2.37;;;13.40;99.90;;;;;;5049509;28;20196;-82
2023/03/24 07:50:42;;;;;;;2.90;2.60;;;13.40;99.90;;;;;;5039700;28;20207;-82
2023/03/24 07:53:10;;;;;;;3.20;2.70;;;13.50;99.90;;;;;;5043194;28;20298;-82
2023/03/24 07:55:37;;;;;;;2.40;2.20;;;13.30;99.90;;;;;;5050212;28;20214;-81
2023/03/24 07:58:04;;;;;;;3.77;2.60;;;13.20;99.90;;;;;;5041702;28;20311;-82
2023/03/24 08:00:32;;;;;;;2.67;2.47;;;13.10;99.90;;;;;;5046313;28;20203;-82
2023/03/24 08:03:00;;;;;;;2.97;2.70;;;13.00;99.90;;;;;;5043214;28;20223;-82
2023/03/24 08:05:29;;;;;;;3.77;2.20;;;13.00;99.90;;;;;;5051127;28;20215;-82
2023/03/24 08:07:57;;;;;;;2.33;2.10;;;12.90;99.90;;;;;;5043644;28;20204;-82
2023/03/24 08:10:27;;;;;;;2.47;2.20;;;13.10;99.90;;;;;;5060402;28;20249;-81
2023/03/24 08:12:54;;;;;;;2.20;1.70;;;13.00;99.90;;;;;;5048322;28;20289;-83
2023/03/24 08:15:22;;;;;;;2.10;1.77;;;13.90;99.90;;;;;;5028865;28;20208;-81
2023/03/24 08:17:52;;;;;;;2.70;1.60;;;14.30;99.90;;;;;;5043602;28;20318;-81
2023/03/24 08:20:20;;;;;;;1.40;1.00;;;13.90;99.90;;;;;;5046571;28;20207;-81
2023/03/24 08:22:49;;;;;;;0.93;0.93;;;13.90;99.90;;;;;;5039999;28;20227;-81
2023/03/24 08:25:17;;;;;;;1.70;1.10;;;14.20;99.90;;;;;;5049607;28;20581;-82
2023/03/24 08:27:46;;;;;;;1.20;0.85;;;14.20;99.90;;;;;;5043877;28;20205;-81
2023/03/24 08:30:17;;;;;;;0.80;0.80;;;13.80;99.90;;;;;;5038760;28;20578;-81
2023/03/24 08:32:45;;;;;;;1.33;0.82;;;14.00;99.90;;;;;;5045965;28;20666;-82
2023/03/24 08:35:13;;;;;;;1.45;0.80;;;14.40;99.90;;;;;;5053718;28;20283;-82
2023/03/24 08:37:42;;;;;;;0.67;0.67;;;14.20;99.90;;;;;;5038619;28;20220;-81
2023/03/24 08:40:12;;;;;;;2.50;0.90;;;14.40;99.90;;;;;;5033343;28;20195;-83
2023/03/24 08:42:39;;;;;;;2.33;0.85;;;14.30;99.90;;;;;;5052927;28;20228;-82
2023/03/24 08:45:11;;;;;;;1.03;0.93;;;14.40;99.90;;;;;;5046987;28;20582;-82
2023/03/24 08:47:38;;;;;;;0.93;0.70;;;14.60;99.90;;;;;;5047544;28;20243;-82
2023/03/24 08:50:08;;;;;;;1.10;1.00;;;14.50;99.90;;;;;;5058945;28;20575;-82
2023/03/24 08:52:35;;;;;;;1.80;1.38;;;14.30;99.90;;;;;;5040876;28;20228;-81
2023/03/24 08:55:02;;;;;;;2.53;0.80;;;14.30;99.90;;;;;;5043591;28;20205;-81
2023/03/24 08:57:31;;;;;;;1.48;1.10;;;14.20;99.90;;;;;;5045064;28;20227;-82
2023/03/24 08:59:58;;;;;;;2.13;0.90;;;14.20;99.90;;;;;;5051919;28;20224;-82
2023/03/24 09:02:26;;;;;;;1.67;0.80;;;14.20;99.90;;;;;;5056357;28;20215;-82
2023/03/24 09:04:54;;;;;;;3.22;1.45;;;14.20;99.90;;;;;;5045538;28;20234;-81
2023/03/24 09:07:21;;;;;;;4.40;1.80;;;14.30;99.90;;;;;;5041293;28;20199;-81
2023/03/24 09:09:49;;;;;;;3.25;1.38;;;14.30;99.90;;;;;;5036143;28;20219;-84
2023/03/24 09:12:15;;;;;;;1.47;1.00;;;14.50;99.90;;;;;;5046631;28;20291;-84
2023/03/24 09:14:47;;;;;;;1.52;1.00;;;14.60;99.90;;;;;;5058106;28;20199;-84
2023/03/24 09:17:14;;;;;;;3.20;1.20;;;14.50;99.90;;;;;;5051156;28;20263;-85
2023/03/24 09:19:42;;;;;;;3.17;1.25;;;14.90;99.90;;;;;;5056993;28;20200;-83
2023/03/24 09:22:09;;;;;;;4.55;1.50;;;14.80;99.90;;;;;;5060424;28;20686;-83
2023/03/24 09:24:36;;;;;;;2.67;1.40;;;14.50;99.90;;;;;;5051587;28;20207;-85
2023/03/24 09:27:03;;;;;;;6.82;2.00;;;14.40;99.90;;;;;;5044303;28;20642;-81
2023/03/24 09:29:30;;;;;;;2.63;1.52;;;14.20;99.90;;;;;;5047228;28;20227;-83
2023/03/24 09:31:57;;;;;;;3.85;1.80;;;14.00;99.90;;;;;;5046053;28;20241;-85
2023/03/24 09:34:24;;;;;;;3.33;1.80;;;14.10;99.90;;;;;;5044643;28;20206;-83
2023/03/24 09:36:53;;;;;;;4.18;1.65;;;14.10;99.90;;;;;;5054728;28;20269;-84
2023/03/24 09:39:20;;;;;;;3.03;1.80;;;14.50;99.90;;;;;;5052091;28;20219;-83
2023/03/24 09:41:49;;;;;;;4.30;2.20;;;14.20;99.90;;;;;;5046404;28;20334;-84
2023/03/24 09:44:23;;;;;;;5.10;2.22;;;14.10;99.90;;;;;;5053131;28;20195;-84
2023/03/24 09:46:54;;;;;;;2.40;1.95;;;14.10;99.90;;;;;;5050457;28;20209;-87
2023/03/24 09:49:24;;;;;;;4.50;2.20;;;14.60;99.90;;;;;;5053215;28;20219;-84
2023/03/24 09:51:56;;;;;;;3.83;2.05;;;14.50;99.90;;;;;;5050958;28;20232;-85
2023/03/24 09:54:31;;;;;;;5.70;2.77;;;14.40;99.90;;;;;;5055721;28;20204;-85
2023/03/24 09:56:58;;;;;;;5.72;2.00;;;14.10;99.90;;;;;;5047875;28;20217;-82
2023/03/24 09:59:34;;;;;;;2.42;1.90;;;14.20;99.90;;;;;;5040826;28;20279;-84
2023/03/24 10:02:02;;;;;;;5.20;2.78;;;14.10;99.90;;;;;;5053352;28;20277;-85
2023/03/24 10:04:31;;;;;;;4.90;2.60;;;14.10;99.90;;;;;;5049166;28;20203;-84
2023/03/24 10:07:04;;;;;;;4.10;2.40;;;14.10;99.90;;;;;;5048087;28;20236;-84
2023/03/24 10:09:33;;;;;;;3.60;2.50;;;14.10;99.90;;;;;;5049299;28;20190;-85
2023/03/24 10:12:14;;;;;;;4.47;2.25;;;14.30;99.90;;;;;;5047034;28;20242;-84
2023/03/24 10:14:53;;;;;;;6.00;2.33;;;14.70;99.90;;;;;;5052750;28;20263;-84
2023/03/24 10:17:30;;;;;;;5.43;2.53;;;15.30;99.90;;;;;;5050830;28;20199;-85
2023/03/24 10:20:02;;;;;;;4.82;2.30;;;15.20;99.90;;;;;;5048048;28;20231;-84
2023/03/24 10:22:36;;;;;;;6.53;2.22;;;15.00;99.90;;;;;;5044669;28;20219;-84
2023/03/24 10:25:11;;;;;;;3.78;1.92;;;14.70;99.90;;;;;;5043226;28;20239;-85
2023/03/24 10:27:42;;;;;;;5.93;2.97;;;14.40;99.90;;;;;;5048126;28;20286;-85
2023/03/24 10:30:16;;;;;;;6.43;2.40;;;14.50;99.90;;;;;;5044225;28;20204;-84
2023/03/24 10:32:44;;;;;;;5.03;2.17;;;14.30;99.90;;;;;;5047484;28;20266;-84
2023/03/24 10:35:17;;;;;;;5.65;2.60;;;14.40;99.90;;;;;;5055753;28;20221;-84
2023/03/24 10:37:45;;;;;;;4.60;2.83;;;14.40;99.90;;;;;;5041008;28;20251;-86
2023/03/24 10:40:16;;;;;;;5.00;2.30;;;14.50;99.90;;;;;;5047391;28;20283;-84
2023/03/24 10:42:47;;;;;;;5.55;2.45;;;14.60;99.90;;;;;;5047906;28;20229;-85
2023/03/24 10:45:16;;;;;;;5.97;2.20;;;15.00;99.90;;;;;;5046470;28;20214;-85
2023/03/24 10:47:44;;;;;;;7.38;2.70;;;15.10;99.90;;;;;;5054625;28;20206;-84
2023/03/24 10:50:11;;;;;;;6.43;2.60;;;15.10;99.90;;;;;;5054314;28;20207;-84
2023/03/24 10:52:40;;;;;;;5.97;2.30;;;15.10;99.90;;;;;;5053705;28;20719;-85
2023/03/24 10:55:15;;;;;;;6.20;2.38;;;15.00;99.90;;;;;;5040882;28;20212;-84
2023/03/24 10:57:44;;;;;;;4.03;2.13;;;15.20;99.90;;;;;;5046892;28;20207;-83
2023/03/24 11:00:21;;;;;;;5.10;2.22;;;15.00;99.90;;;;;;5045590;28;20218;-84
2023/03/24 11:02:56;;;;;;;5.97;2.40;;;14.80;99.90;;;;;;5045251;28;20235;-87
2023/03/24 11:05:28;;;;;;;6.63;2.35;;;14.60;99.90;;;;;;5048007;28;20203;-84
2023/03/24 11:07:59;;;;;;;4.35;2.35;;;14.60;99.90;;;;;;5050771;28;20227;-84
2023/03/24 11:10:27;;;;;;;4.00;2.28;;;14.80;99.90;;;;;;5050784;28;20903;-84
2023/03/24 11:13:03;;;;;;;6.03;2.80;;;15.10;99.90;;;;;;5050919;28;20224;-83
2023/03/24 11:15:36;;;;;;;5.10;2.45;;;15.60;99.90;;;;;;5050596;28;20199;-83
2023/03/24 11:18:14;;;;;;;4.05;2.42;;;15.70;99.90;;;;;;5049242;28;20509;-84
2023/03/24 11:20:45;;;;;;;4.97;2.20;;;16.10;99.90;;;;;;5050472;28;20211;-84
2023/03/24 11:23:16;;;;;;;4.22;2.47;;;16.00;99.90;;;;;;5052593;28;20220;-85
2023/03/24 11:25:52;;;;;;;4.35;2.40;;;16.10;99.90;;;;;;5053658;28;20721;-84
2023/03/24 11:28:24;;;;;;;4.70;2.17;;;16.60;99.90;;;;;;5053227;28;20229;-84
2023/03/24 11:30:53;;;;;;;3.75;2.45;;;17.10;99.90;;;;;;5052410;28;20209;-84
2023/03/24 11:33:24;;;;;;;6.07;2.60;;;16.70;99.90;;;;;;5051746;28;20271;-84
2023/03/24 11:35:51;;;;;;;3.60;2.10;;;16.60;1.00;;;;;;5050253;28;20196;-85
2023/03/24 11:38:19;;;;;;;4.20;1.80;;;17.00;1.00;;;;;;5049501;28;20278;-83
2023/03/24 11:41:00;;;;;;;7.70;2.22;;;16.70;1.00;;;;;;5050789;28;20531;-84
2023/03/24 11:43:27;;;;;;;6.60;2.65;;;16.30;99.90;;;;;;5048984;28;20227;-87
2023/03/24 11:45:59;;;;;;;5.30;2.20;;;16.70;99.90;;;;;;5051283;28;20271;-82
2023/03/24 11:48:34;;;;;;;3.85;2.10;;;16.30;99.90;;;;;;5050620;28;20180;-85
2023/03/24 11:51:03;;;;;;;5.97;2.20;;;16.00;1.00;;;;;;5050896;28;20259;-87
2023/03/24 11:53:38;;;;;;;3.58;1.90;;;16.10;1.00;;;;;;5049192;28;20242;-84
2023/03/24 11:56:12;;;;;;;5.03;2.47;;;16.20;1.00;;;;;;5050071;28;20180;-84
2023/03/24 11:58:45;;;;;;;5.30;2.58;;;16.00;1.00;;;;;;5047119;28;20228;-83
2023/03/24 12:01:21;;;;;;;4.07;2.50;;;15.90;1.00;;;;;;5047953;28;20658;-84
2023/03/24 12:04:12;;;;;;;5.18;2.80;;;15.90;99.90;;;;;;5046499;28;20209;-83
2023/03/24 12:06:51;;;;;;;4.40;2.38;;;15.70;12.70;;;;;;5046258;28;20215;-86
2023/03/24 12:09:24;;;;;;;4.30;2.90;;;15.50;75.70;;;;;;5048191;28;21006;-84
2023/03/24 12:12:14;;;;;;;7.50;3.22;;;15.70;1.00;;;;;;5040874;28;20607;-83
2023/03/24 12:14:52;;;;;;;5.20;3.03;;;15.40;1.00;;;;;;5044179;28;20204;-84
2023/03/24 12:17:22;;;;;;;3.72;2.22;;;15.30;1.00;;;;;;5039405;28;20211;-84
2023/03/24 12:20:11;;;;;;;3.85;2.28;;;15.30;99.90;;;;;;5046801;28;20266;-83
2023/03/24 12:22:50;;;;;;;4.35;2.28;;;15.30;99.90;;;;;;5032738;28;20699;-84
2023/03/24 12:25:55;;;;;;;3.38;2.08;;;15.30;99.90;;;;;;5040401;28;20203;-83
2023/03/24 12:28:42;;;;;;;5.72;2.20;;;15.40;99.90;;;;;;5033396;28;20632;-84
2023/03/24 12:31:25;;;;;;;3.38;2.13;;;15.50;99.90;;;;;;5034093;28;20195;-84
2023/03/24 12:34:03;;;;;;;5.43;2.03;;;15.20;1.00;;;;;;5040648;28;20208;-84
2023/03/24 12:36:41;;;;;;;5.55;2.40;;;15.30;1.00;;;;;;5031210;28;20659;-84
2023/03/24 12:39:12;;;;;;;4.50;2.30;;;15.30;1.00;;;;;;5052586;28;20217;-83
2023/03/24 12:41:54;;;;;;;5.40;2.20;;;15.30;24.40;;;;;;5054350;28;20267;-86
2023/03/24 12:44:42;;;;;;;4.80;2.42;;;15.20;1.00;;;;;;5043134;28;20215;-84
2023/03/24 12:47:24;;;;;;;5.43;2.50;;;14.90;99.90;;;;;;5046755;28;20357;-83
2023/03/24 12:50:04;;;;;;;6.05;2.40;;;15.00;99.90;;;;;;5050698;28;20619;-86
2023/03/24 12:52:54;;;;;;;4.90;2.60;;;14.80;1.00;;;;;;5048641;28;20310;-86
2023/03/24 12:55:30;;;;;;;5.57;2.65;;;14.80;1.00;;;;;;5045893;28;20200;-85
2023/03/24 12:58:02;;;;;;;6.55;3.08;;;15.10;1.00;;;;;;5048730;28;20206;-83
2023/03/24 13:00:34;;;;;;;6.03;2.92;;;15.40;1.00;;;;;;5050314;28;20259;-85
2023/03/24 13:03:04;;;;;;;6.13;3.00;;;15.40;1.00;;;;;;5055167;28;20281;-84
2023/03/24 13:05:34;;;;;;;6.65;3.13;;;15.30;1.00;;;;;;5048554;28;20299;-84
2023/03/24 13:08:04;;;;;;;2.88;2.67;;;15.30;1.00;;;;;;5045673;28;20252;-84
2023/03/24 13:10:39;;;;;;;5.82;2.47;;;15.20;99.90;;;;;;5052584;28;20263;-85